createdAt,value
2023-05-19T00:00:14.970Z,76.04
2023-05-19T00:03:22.003Z,76.11
2023-05-19T00:06:26.995Z,76.43
2023-05-19T00:09:32.566Z,76.54
2023-05-19T00:12:37.390Z,76.74
2023-05-19T00:15:41.685Z,76.53
2023-05-19T00:18:45.420Z,76.34
2023-05-19T00:21:49.123Z,76.03
2023-05-19T00:24:54.057Z,76.24
2023-05-19T00:27:59.360Z,75.67
2023-05-19T00:31:03.608Z,76.54
2023-05-19T00:34:07.363Z,76.47
2023-05-19T00:37:11.492Z,76.09
2023-05-19T00:40:17.472Z,76.96
2023-05-19T00:43:21.296Z,76.87
2023-05-19T00:46:26.496Z,77.18
2023-05-19T00:49:30.252Z,77.17
2023-05-19T00:52:34.157Z,77.88
2023-05-19T00:55:40.839Z,78.13
2023-05-19T00:58:45.784Z,78.23
2023-05-19T01:01:52.204Z,78.07
2023-05-19T01:04:57.894Z,78.10
2023-05-19T01:08:01.776Z,78.24
2023-05-19T01:11:08.066Z,78.21
2023-05-19T01:14:11.607Z,77.76
2023-05-19T01:17:23.434Z,77.71
2023-05-19T01:20:36.513Z,77.48
2023-05-19T01:23:54.319Z,77.09
2023-05-19T01:27:42.519Z,76.77
2023-05-19T01:30:52.832Z,77.20
2023-05-19T01:33:57.134Z,77.01
2023-05-19T01:37:03.041Z,76.77
2023-05-19T01:40:09.377Z,76.79
2023-05-19T01:43:15.257Z,76.70
2023-05-19T01:46:23.491Z,76.95
2023-05-19T01:49:27.094Z,76.29
2023-05-19T01:52:30.784Z,76.52
2023-05-19T01:55:34.590Z,76.61
2023-05-19T01:58:45.836Z,76.95
2023-05-19T02:01:56.498Z,76.24
2023-05-19T02:05:10.149Z,77.02
2023-05-19T02:08:18.291Z,76.24
2023-05-19T02:11:28.735Z,76.00
2023-05-19T02:14:40.607Z,77.00
2023-05-19T02:17:48.520Z,77.48
2023-05-19T02:20:52.496Z,77.21
2023-05-19T02:23:56.125Z,77.61
2023-05-19T02:26:59.787Z,77.83
2023-05-19T02:30:03.909Z,77.18
2023-05-19T02:33:11.530Z,78.30
2023-05-19T02:36:15.274Z,77.79
2023-05-19T02:39:18.821Z,78.40
2023-05-19T02:42:24.335Z,78.61
2023-05-19T02:45:28.885Z,78.22
2023-05-19T02:48:35.960Z,78.34
2023-05-19T02:51:40.248Z,78.37
2023-05-19T02:54:44.359Z,78.61
2023-05-19T02:57:48.319Z,78.86
2023-05-19T03:00:52.406Z,79.13
2023-05-19T03:03:57.620Z,79.74
2023-05-19T03:07:02.271Z,79.25
2023-05-19T03:10:06.899Z,80.30
2023-05-19T03:13:10.876Z,80.25
2023-05-19T03:16:17.287Z,80.99
2023-05-19T03:19:22.948Z,80.35
2023-05-19T03:22:26.752Z,80.29
2023-05-19T03:25:30.821Z,80.89
2023-05-19T03:28:36.914Z,81.39
2023-05-19T03:31:40.399Z,81.59
2023-05-19T03:34:45.369Z,81.12
2023-05-19T03:37:51.325Z,81.60
2023-05-19T03:40:54.905Z,81.44
2023-05-19T03:43:59.106Z,81.38
2023-05-19T03:47:02.529Z,81.77
2023-05-19T03:50:35.376Z,82.02
2023-05-19T03:53:49.832Z,82.01
2023-05-19T03:56:53.383Z,82.00
2023-05-19T03:59:56.885Z,81.70
2023-05-19T04:03:01.528Z,81.97
2023-05-19T04:06:06.628Z,82.36
2023-05-19T04:09:14.195Z,82.46
2023-05-19T04:12:17.874Z,83.24
2023-05-19T04:15:22.171Z,83.05
2023-05-19T04:18:27.597Z,83.42
2023-05-19T04:21:33.837Z,82.88
2023-05-19T04:24:37.328Z,82.83
2023-05-19T04:27:41.590Z,83.29
2023-05-19T04:30:46.786Z,83.57
2023-05-19T04:33:50.292Z,83.62
2023-05-19T04:36:55.771Z,83.16
2023-05-19T04:39:59.512Z,83.78
2023-05-19T04:43:04.066Z,83.66
2023-05-19T04:46:12.219Z,83.68
2023-05-19T04:49:19.367Z,83.65
2023-05-19T04:52:24.325Z,83.25
2023-05-19T04:55:28.136Z,82.93
2023-05-19T04:58:31.572Z,83.15
2023-05-19T05:01:40.363Z,82.79
2023-05-19T05:04:46.661Z,84.09
2023-05-19T05:07:54.287Z,83.23
2023-05-19T05:11:00.542Z,83.06
2023-05-19T05:14:04.586Z,83.21
2023-05-19T05:17:10.586Z,83.31
2023-05-19T05:20:15.241Z,84.20
2023-05-19T05:23:21.155Z,83.67
2023-05-19T05:26:31.421Z,83.61
2023-05-19T05:29:34.900Z,83.03
2023-05-19T05:32:40.605Z,83.46
2023-05-19T05:35:51.705Z,83.82
2023-05-19T05:38:56.940Z,83.41
2023-05-19T05:42:01.407Z,83.21
2023-05-19T05:45:05.483Z,83.20
2023-05-19T05:48:09.923Z,82.28
2023-05-19T05:51:13.881Z,82.66
2023-05-19T05:54:23.024Z,82.79
2023-05-19T05:57:27.087Z,82.91
2023-05-19T06:00:30.882Z,83.32
2023-05-19T06:03:34.595Z,82.91
2023-05-19T06:06:43.283Z,82.67
2023-05-19T06:09:50.190Z,82.98
2023-05-19T06:12:53.881Z,82.24
2023-05-19T06:16:00.419Z,82.71
2023-05-19T06:19:13.204Z,82.33
2023-05-19T06:22:17.012Z,82.47
2023-05-19T06:25:23.029Z,82.04
2023-05-19T06:28:26.698Z,82.47
2023-05-19T06:31:31.847Z,82.16
2023-05-19T06:34:42.375Z,82.08
2023-05-19T06:37:46.408Z,81.85
2023-05-19T06:40:51.300Z,82.07
2023-05-19T06:43:55.165Z,81.25
2023-05-19T06:46:58.712Z,80.77
2023-05-19T06:50:02.288Z,80.92
2023-05-19T06:53:09.619Z,81.36
2023-05-19T06:56:15.087Z,80.21
2023-05-19T06:59:21.888Z,80.60
2023-05-19T07:02:26.487Z,80.21
2023-05-19T07:05:30.594Z,79.08
2023-05-19T07:08:37.413Z,78.90
2023-05-19T07:11:44.078Z,78.08
2023-05-19T07:14:48.069Z,79.03
2023-05-19T07:17:53.209Z,78.33
2023-05-19T07:20:58.059Z,79.01
2023-05-19T07:24:01.952Z,78.00
2023-05-19T07:27:07.541Z,78.65
2023-05-19T07:30:11.739Z,77.93
2023-05-19T07:33:15.305Z,78.20
2023-05-19T07:36:18.909Z,77.35
2023-05-19T07:39:22.595Z,77.62
2023-05-19T07:42:28.179Z,77.54
2023-05-19T07:45:31.705Z,76.83
2023-05-19T07:48:35.495Z,76.38
2023-05-19T07:51:39.096Z,77.07
2023-05-19T07:54:42.650Z,76.59
2023-05-19T07:57:47.515Z,77.04
2023-05-19T08:00:51.074Z,77.00
2023-05-19T08:03:54.837Z,77.07
2023-05-19T08:06:58.395Z,77.23
2023-05-19T08:10:02.189Z,76.55
2023-05-19T08:13:07.411Z,76.58
2023-05-19T08:16:11.265Z,75.58
2023-05-19T08:19:14.839Z,76.11
2023-05-19T08:22:18.597Z,75.95
2023-05-19T08:25:22.515Z,75.77
2023-05-19T08:28:27.505Z,75.08
2023-05-19T08:31:31.235Z,75.21
2023-05-19T08:34:34.988Z,75.84
2023-05-19T08:37:38.793Z,75.52
2023-05-19T08:40:44.184Z,75.75
2023-05-19T08:43:50.122Z,74.79
2023-05-19T08:46:56.260Z,76.15
2023-05-19T08:50:07.841Z,75.97
2023-05-19T08:53:31.912Z,76.03
2023-05-19T08:56:36.824Z,76.22
2023-05-19T08:59:42.884Z,75.67
2023-05-19T09:02:55.455Z,75.91
2023-05-19T09:06:09.999Z,75.24
2023-05-19T09:09:15.693Z,74.89
2023-05-19T09:12:19.549Z,75.10
2023-05-19T09:15:28.548Z,75.15
2023-05-19T09:18:32.841Z,73.51
2023-05-19T09:21:36.805Z,74.40
2023-05-19T09:24:40.822Z,74.32
2023-05-19T09:27:44.252Z,74.15
2023-05-19T09:30:49.244Z,74.25
2023-05-19T09:33:55.550Z,74.21
2023-05-19T09:37:00.129Z,73.98
2023-05-19T09:40:06.468Z,73.15
2023-05-19T09:43:10.199Z,72.63
2023-05-19T09:46:15.957Z,73.93
2023-05-19T09:49:23.573Z,72.96
2023-05-19T09:52:27.643Z,73.07
2023-05-19T09:55:33.300Z,72.56
2023-05-19T09:58:37.175Z,71.85
2023-05-19T10:01:46.558Z,70.86
2023-05-19T10:04:51.346Z,71.47
2023-05-19T10:07:59.078Z,72.15
2023-05-19T10:11:03.689Z,71.86
2023-05-19T10:14:07.474Z,71.68
2023-05-19T10:17:13.926Z,70.86
2023-05-19T10:20:18.661Z,71.79
2023-05-19T10:23:22.720Z,70.38
2023-05-19T10:26:27.547Z,70.85
2023-05-19T10:29:35.633Z,70.26
2023-05-19T10:32:44.300Z,69.12
2023-05-19T10:36:11.363Z,69.73
2023-05-19T10:39:23.439Z,68.76
2023-05-19T10:42:36.555Z,70.35
2023-05-19T10:45:47.493Z,69.86
2023-05-19T10:48:53.754Z,70.31
2023-05-19T10:52:00.858Z,69.36
2023-05-19T10:55:09.027Z,69.83
2023-05-19T10:58:13.128Z,71.28
2023-05-19T11:01:18.096Z,71.00
2023-05-19T11:04:49.515Z,70.33
2023-05-19T11:08:02.290Z,68.95
2023-05-19T11:11:15.417Z,69.32
2023-05-19T11:14:20.309Z,69.98
2023-05-19T11:17:27.533Z,69.92
2023-05-19T11:20:35.172Z,68.82
2023-05-19T11:23:40.981Z,69.09
2023-05-19T11:26:44.914Z,68.82
2023-05-19T11:29:49.685Z,67.53
2023-05-19T11:32:55.610Z,67.29
2023-05-19T11:36:00.784Z,70.20
2023-05-19T11:39:05.012Z,68.20
2023-05-19T11:42:10.852Z,68.88
2023-05-19T11:45:14.538Z,68.32
2023-05-19T11:48:18.901Z,68.58
2023-05-19T11:51:24.624Z,67.86
2023-05-19T11:54:32.363Z,66.87
2023-05-19T11:57:36.618Z,66.18
2023-05-19T12:00:41.665Z,66.36
2023-05-19T12:03:45.387Z,65.81
2023-05-19T12:06:52.431Z,67.48
2023-05-19T12:09:58.288Z,67.63
2023-05-19T12:13:02.269Z,67.76
2023-05-19T12:16:06.081Z,67.64
2023-05-19T12:19:10.570Z,67.98
2023-05-19T12:22:17.419Z,67.73
2023-05-19T12:25:21.974Z,66.88
2023-05-19T12:28:25.476Z,66.57
2023-05-19T12:31:29.195Z,66.51
2023-05-19T12:34:32.870Z,67.24
2023-05-19T12:37:42.538Z,68.43
2023-05-19T12:40:45.988Z,68.53
2023-05-19T12:43:49.605Z,68.41
2023-05-19T12:46:53.922Z,68.55
2023-05-19T12:49:58.435Z,68.71
2023-05-19T12:53:03.542Z,68.80
2023-05-19T12:56:14.108Z,68.36
2023-05-19T12:59:34.800Z,67.82
2023-05-19T13:02:57.344Z,67.18
2023-05-19T13:06:01.049Z,67.45
2023-05-19T13:09:11.735Z,67.86
2023-05-19T13:12:15.309Z,67.10
2023-05-19T13:15:19.266Z,64.88
2023-05-19T13:18:25.877Z,67.16
2023-05-19T13:21:30.618Z,66.79
2023-05-19T13:24:36.053Z,66.55
2023-05-19T13:27:39.629Z,65.90
2023-05-19T13:30:46.843Z,65.41
2023-05-19T13:33:50.386Z,67.05
2023-05-19T13:36:54.181Z,67.70
2023-05-19T13:39:59.546Z,68.82
2023-05-19T13:43:03.596Z,69.45
2023-05-19T13:46:07.754Z,69.54
2023-05-19T13:49:13.144Z,69.62
2023-05-19T13:52:17.338Z,69.83
2023-05-19T13:55:23.352Z,69.76
2023-05-19T13:58:30.749Z,69.99
2023-05-19T14:01:34.948Z,69.95
2023-05-19T14:04:39.311Z,70.00
2023-05-19T14:07:46.447Z,70.32
2023-05-19T14:10:52.123Z,69.22
2023-05-19T14:13:56.376Z,69.11
2023-05-19T14:17:02.997Z,69.65
2023-05-19T14:20:07.779Z,70.09
2023-05-19T14:23:11.822Z,69.32
2023-05-19T14:26:25.619Z,69.33
2023-05-19T14:29:31.372Z,70.39
2023-05-19T14:32:35.221Z,70.47
2023-05-19T14:35:41.642Z,70.48
2023-05-19T14:38:45.465Z,70.21
2023-05-19T14:41:53.175Z,71.08
2023-05-19T14:44:57.062Z,71.42
2023-05-19T14:48:00.639Z,71.71
2023-05-19T14:51:04.134Z,71.24
2023-05-19T14:54:08.891Z,71.33
2023-05-19T14:57:14.243Z,71.14
2023-05-19T15:00:19.102Z,70.87
2023-05-19T15:03:23.375Z,71.03
2023-05-19T15:06:27.045Z,70.51
2023-05-19T15:09:30.819Z,71.35
2023-05-19T15:12:36.343Z,71.69
2023-05-19T15:15:39.838Z,71.75
2023-05-19T15:18:43.649Z,71.73
2023-05-19T15:21:47.368Z,72.18
2023-05-19T15:24:50.915Z,72.50
2023-05-19T15:27:56.286Z,71.98
2023-05-19T15:31:00.009Z,72.31
2023-05-19T15:34:03.464Z,72.04
2023-05-19T15:37:07.287Z,72.53
2023-05-19T15:40:13.770Z,72.80
2023-05-19T15:43:20.102Z,72.83
2023-05-19T15:46:23.655Z,72.75
2023-05-19T15:49:27.472Z,73.30
2023-05-19T15:52:30.947Z,72.65
2023-05-19T15:55:35.005Z,72.27
2023-05-19T15:58:43.659Z,72.08
2023-05-19T16:01:47.469Z,71.60
2023-05-19T16:04:51.096Z,72.46
2023-05-19T16:07:54.576Z,71.75
2023-05-19T16:10:58.316Z,71.86
2023-05-19T16:14:03.332Z,71.55
2023-05-19T16:17:12.334Z,71.76
2023-05-19T16:20:15.939Z,71.83
2023-05-19T16:23:19.564Z,71.56
2023-05-19T16:26:23.250Z,71.39
2023-05-19T16:29:28.221Z,71.95
2023-05-19T16:32:31.708Z,71.55
2023-05-19T16:35:36.506Z,72.21
2023-05-19T16:38:39.960Z,71.90
2023-05-19T16:41:43.558Z,71.09
2023-05-19T16:44:48.358Z,71.50
2023-05-19T16:47:54.066Z,70.84
2023-05-19T16:50:58.129Z,71.60
2023-05-19T16:54:01.711Z,71.88
2023-05-19T16:57:07.548Z,72.33
2023-05-19T17:00:14.979Z,71.53
2023-05-19T17:03:18.619Z,71.77
2023-05-19T17:06:22.416Z,71.93
2023-05-19T17:09:26.555Z,71.77
2023-05-19T17:12:30.186Z,72.19
2023-05-19T17:15:35.611Z,72.76
2023-05-19T17:18:39.632Z,72.84
2023-05-19T17:21:43.309Z,73.29
2023-05-19T17:24:47.363Z,73.26
2023-05-19T17:27:59.677Z,74.02
2023-05-19T17:31:11.015Z,73.58
2023-05-19T17:34:15.528Z,73.80
2023-05-19T17:37:23.542Z,74.66
2023-05-19T17:40:27.176Z,74.40
2023-05-19T17:43:30.890Z,73.62
2023-05-19T17:46:37.044Z,73.58
2023-05-19T17:49:41.541Z,73.42
2023-05-19T17:52:45.770Z,73.71
2023-05-19T17:55:53.256Z,73.86
2023-05-19T17:59:00.126Z,73.67
2023-05-19T18:02:06.120Z,73.75
2023-05-19T18:05:15.693Z,74.14
2023-05-19T18:08:20.121Z,74.44
2023-05-19T18:11:27.539Z,74.78
2023-05-19T18:14:31.209Z,73.93
2023-05-19T18:17:37.572Z,74.64
2023-05-19T18:20:44.387Z,74.77
2023-05-19T18:23:52.125Z,75.63
2023-05-19T18:26:55.672Z,74.75
2023-05-19T18:29:59.549Z,75.03
2023-05-19T18:33:04.797Z,75.31
2023-05-19T18:36:09.407Z,75.71
2023-05-19T18:39:15.832Z,75.87
2023-05-19T18:42:19.524Z,75.94
2023-05-19T18:45:25.463Z,75.71
2023-05-19T18:48:31.438Z,76.89
2023-05-19T18:51:36.322Z,75.89
2023-05-19T18:54:42.136Z,76.19
2023-05-19T18:57:46.248Z,76.34
2023-05-19T19:00:51.903Z,75.77
2023-05-19T19:03:56.965Z,76.89
2023-05-19T19:07:00.493Z,76.19
2023-05-19T19:10:04.142Z,76.19
2023-05-19T19:13:07.722Z,76.61
2023-05-19T19:16:11.245Z,75.99
2023-05-19T19:19:17.003Z,75.83
2023-05-19T19:22:27.942Z,76.03
2023-05-19T19:25:31.477Z,76.08
2023-05-19T19:28:35.524Z,77.08
2023-05-19T19:31:39.023Z,76.54
2023-05-19T19:34:47.027Z,76.42
2023-05-19T19:37:53.237Z,76.83
2023-05-19T19:40:57.254Z,76.63
2023-05-19T19:44:00.700Z,75.66
2023-05-19T19:47:07.106Z,76.26
2023-05-19T19:50:15.766Z,77.09
2023-05-19T19:53:19.281Z,76.38
2023-05-19T19:56:27.656Z,76.96
2023-05-19T19:59:31.597Z,76.78
2023-05-19T20:02:41.016Z,77.02
2023-05-19T20:05:57.918Z,76.26
2023-05-19T20:09:06.916Z,76.83
2023-05-19T20:12:13.825Z,75.97
2023-05-19T20:15:17.846Z,75.99
2023-05-19T20:18:21.539Z,76.68
2023-05-19T20:21:29.079Z,75.98
2023-05-19T20:24:32.999Z,76.01
2023-05-19T20:27:36.573Z,75.85
2023-05-19T20:30:42.929Z,75.99
2023-05-19T20:33:49.630Z,75.58
2023-05-19T20:36:55.583Z,76.55
2023-05-19T20:40:01.959Z,76.55
2023-05-19T20:43:05.543Z,77.15
2023-05-19T20:46:11.666Z,76.77
2023-05-19T20:49:15.668Z,76.75
2023-05-19T20:52:21.204Z,75.98
2023-05-19T20:55:24.798Z,76.80
2023-05-19T20:58:30.412Z,77.07
2023-05-19T21:01:35.152Z,77.67
2023-05-19T21:04:39.858Z,77.33
2023-05-19T21:07:44.847Z,77.06
2023-05-19T21:10:49.155Z,77.24
2023-05-19T21:13:52.643Z,76.91
2023-05-19T21:16:57.945Z,76.75
2023-05-19T21:20:02.196Z,77.26
2023-05-19T21:24:03.256Z,77.64
2023-05-19T21:27:08.719Z,77.61
2023-05-19T21:30:13.660Z,77.64
2023-05-19T21:33:20.425Z,77.91
2023-05-19T21:36:26.497Z,77.27
2023-05-19T21:39:37.675Z,77.46
2023-05-19T21:42:43.046Z,77.70
2023-05-19T21:45:46.702Z,78.07
2023-05-19T21:48:53.088Z,78.32
2023-05-19T21:51:57.897Z,78.50
2023-05-19T21:55:03.303Z,77.88
2023-05-19T21:58:10.686Z,78.38
2023-05-19T22:01:14.460Z,78.05
2023-05-19T22:04:18.812Z,77.90
2023-05-19T22:07:27.133Z,77.89
2023-05-19T22:10:33.138Z,77.63
2023-05-19T22:13:41.349Z,77.96
2023-05-19T22:16:45.116Z,77.94
2023-05-19T22:19:48.864Z,77.72
2023-05-19T22:22:52.693Z,76.63
2023-05-19T22:25:56.198Z,77.17
2023-05-19T22:29:01.744Z,77.50
2023-05-19T22:32:06.390Z,78.21
2023-05-19T22:35:12.477Z,78.94
2023-05-19T22:38:15.927Z,79.12
2023-05-19T22:41:19.566Z,78.94
2023-05-19T22:44:24.499Z,78.46
2023-05-19T22:47:30.109Z,78.54
2023-05-19T22:50:35.396Z,78.39
2023-05-19T22:53:39.202Z,78.24
2023-05-19T22:56:46.373Z,78.00
2023-05-19T22:59:52.302Z,78.74
2023-05-19T23:02:56.106Z,78.17
2023-05-19T23:06:00.218Z,78.09
2023-05-19T23:09:04.509Z,78.13
2023-05-19T23:12:08.663Z,78.27
2023-05-19T23:15:14.096Z,78.37
2023-05-19T23:18:17.949Z,78.10
2023-05-19T23:21:21.901Z,77.42
2023-05-19T23:24:25.889Z,78.60
2023-05-19T23:27:29.809Z,78.46
2023-05-19T23:30:38.457Z,78.54
2023-05-19T23:33:42.077Z,78.62
2023-05-19T23:36:45.730Z,78.32
2023-05-19T23:39:49.125Z,78.78
2023-05-19T23:42:52.770Z,78.49
2023-05-19T23:45:58.165Z,78.55
2023-05-19T23:49:02.177Z,78.45
2023-05-19T23:52:06.034Z,78.48
2023-05-19T23:55:12.752Z,78.60
2023-05-19T23:58:16.734Z,78.82
